Time;durP1;ratioP1;P1;durP2;ratioP2;P2;SDS_P1;SDS_P2;PMS_P1;PMS_P2;Temp;Humidity;BMP_temperature;BMP_pressure;BME280_temperature;BME280_humidity;BME280_pressure;Samples;Min_cycle;Max_cycle;Signal;HPM_P1;HPM_P2
2022/10/07 00:01:24;;;;;;;5.05;0.85;;;10.40;99.90;;;;;;5109774;27;20396;-74
2022/10/07 00:03:50;;;;;;;9.70;1.40;;;10.40;99.90;;;;;;5110672;28;20404;-74
2022/10/07 00:06:18;;;;;;;7.20;1.00;;;10.40;99.90;;;;;;5109152;27;20432;-74
2022/10/07 00:08:49;;;;;;;6.00;0.98;;;10.40;99.90;;;;;;5122718;27;20945;-74
2022/10/07 00:11:23;;;;;;;9.77;1.30;;;10.30;99.90;;;;;;5129490;27;20857;-74
2022/10/07 00:13:53;;;;;;;6.35;1.05;;;10.30;99.90;;;;;;5129159;27;20861;-74
2022/10/07 00:16:39;;;;;;;7.20;1.10;;;10.40;99.90;;;;;;5111855;27;20399;-74
2022/10/07 00:19:09;;;;;;;8.90;1.30;;;10.30;99.90;;;;;;5128643;27;20507;-74
2022/10/07 00:21:36;;;;;;;7.78;1.23;;;10.30;99.90;;;;;;5130164;27;20990;-74
2022/10/07 00:24:03;;;;;;;7.15;1.30;;;10.30;99.90;;;;;;5129224;27;20451;-74
2022/10/07 00:26:31;;;;;;;6.93;1.38;;;10.30;99.90;;;;;;5129738;27;20753;-74
2022/10/07 00:28:57;;;;;;;11.33;1.20;;;10.20;99.90;;;;;;5129292;27;20398;-74
2022/10/07 00:31:25;;;;;;;8.77;1.55;;;10.30;99.90;;;;;;5129022;27;20486;-74
2022/10/07 00:33:51;;;;;;;9.05;1.30;;;10.30;99.90;;;;;;5128171;27;20429;-74
2022/10/07 00:36:22;;;;;;;5.43;1.33;;;10.20;99.90;;;;;;5129232;27;20485;-74
2022/10/07 00:38:55;;;;;;;7.85;1.23;;;10.20;99.90;;;;;;5128285;27;20395;-74
2022/10/07 00:41:28;;;;;;;7.13;1.05;;;10.20;99.90;;;;;;5128999;27;20748;-74
2022/10/07 00:43:54;;;;;;;9.18;1.45;;;10.20;99.90;;;;;;5129901;27;20421;-74
2022/10/07 00:46:36;;;;;;;8.60;1.80;;;10.20;99.90;;;;;;5128306;27;20928;-74
2022/10/07 00:49:07;;;;;;;7.80;1.67;;;10.20;99.90;;;;;;5121610;27;20430;-74
2022/10/07 00:51:35;;;;;;;8.00;1.50;;;10.10;99.90;;;;;;5116490;27;20783;-75
2022/10/07 00:54:03;;;;;;;8.90;1.45;;;10.10;99.90;;;;;;5116541;27;20457;-74
2022/10/07 00:56:30;;;;;;;11.23;1.47;;;10.20;99.90;;;;;;5113496;27;20413;-74
2022/10/07 00:59:00;;;;;;;9.00;1.58;;;10.20;99.90;;;;;;5112133;27;20412;-74
2022/10/07 01:01:26;;;;;;;8.90;1.88;;;10.10;99.90;;;;;;5109515;28;20400;-74
2022/10/07 01:03:52;;;;;;;7.27;1.43;;;10.10;99.90;;;;;;5091792;27;20409;-74
2022/10/07 01:06:18;;;;;;;8.38;1.88;;;10.10;99.90;;;;;;5108535;27;20918;-74
2022/10/07 01:08:45;;;;;;;12.50;1.80;;;10.10;99.90;;;;;;5121797;27;20409;-74
2022/10/07 01:12:01;;;;;;;7.20;1.55;;;10.10;99.90;;;;;;5128845;27;20417;-74
2022/10/07 01:14:42;;;;;;;7.95;1.58;;;10.00;99.90;;;;;;5078899;28;20427;-74
2022/10/07 01:17:21;;;;;;;8.68;2.03;;;10.10;99.90;;;;;;5120134;27;20482;-74
2022/10/07 01:20:14;;;;;;;9.32;1.75;;;10.10;99.90;;;;;;5128253;27;20884;-74
2022/10/07 01:22:52;;;;;;;11.32;1.80;;;10.00;99.90;;;;;;5098908;28;20412;-74
2022/10/07 01:25:40;;;;;;;7.15;1.90;;;10.00;99.90;;;;;;5108631;28;20492;-74
2022/10/07 01:28:14;;;;;;;10.55;1.75;;;10.00;99.90;;;;;;5108374;28;20408;-74
2022/10/07 01:30:44;;;;;;;5.93;1.52;;;9.90;99.90;;;;;;5116979;27;20475;-74
2022/10/07 01:33:15;;;;;;;7.90;1.83;;;9.90;99.90;;;;;;5108575;28;20770;-74
2022/10/07 01:35:44;;;;;;;8.68;1.83;;;9.90;99.90;;;;;;5107474;28;20754;-74
2022/10/07 01:38:12;;;;;;;10.35;2.15;;;9.90;99.90;;;;;;5108794;27;20407;-74
2022/10/07 01:40:44;;;;;;;8.25;1.58;;;9.90;99.90;;;;;;5112184;27;20398;-74
2022/10/07 01:43:12;;;;;;;8.85;1.65;;;9.80;99.90;;;;;;5127065;27;20948;-74
2022/10/07 01:45:40;;;;;;;9.43;2.10;;;9.80;99.90;;;;;;5126804;27;20432;-74
2022/10/07 01:48:05;;;;;;;8.65;1.92;;;9.80;99.90;;;;;;5127596;27;20405;-74
2022/10/07 01:50:32;;;;;;;8.98;1.90;;;9.80;99.90;;;;;;5093631;28;20778;-74
2022/10/07 01:53:22;;;;;;;8.93;1.92;;;9.80;99.90;;;;;;5106454;28;20415;-74
2022/10/07 01:56:09;;;;;;;8.43;1.90;;;9.80;99.90;;;;;;5110735;27;20484;-74
2022/10/07 01:58:41;;;;;;;9.47;2.00;;;9.80;99.90;;;;;;5108445;27;20813;-74
2022/10/07 02:01:42;;;;;;;11.80;2.00;;;9.80;99.90;;;;;;5108107;28;20909;-74
2022/10/07 02:04:18;;;;;;;9.65;1.90;;;9.70;99.90;;;;;;5096039;28;20529;-74
2022/10/07 02:06:59;;;;;;;8.98;2.03;;;9.70;99.90;;;;;;5121359;27;20433;-74
2022/10/07 02:09:35;;;;;;;7.30;2.00;;;9.70;99.90;;;;;;5096086;28;20423;-74
2022/10/07 02:12:14;;;;;;;8.20;2.43;;;9.70;99.90;;;;;;5124214;27;20423;-74
2022/10/07 02:14:47;;;;;;;9.75;2.20;;;9.70;99.90;;;;;;5128356;27;20509;-74
2022/10/07 02:17:19;;;;;;;10.23;2.60;;;9.70;99.90;;;;;;5127437;27;20475;-74
2022/10/07 02:19:52;;;;;;;8.23;2.40;;;9.60;99.90;;;;;;5128102;27;20403;-75
2022/10/07 02:22:19;;;;;;;9.40;2.33;;;9.60;99.90;;;;;;5095509;28;20392;-74
2022/10/07 02:24:48;;;;;;;7.72;2.58;;;9.60;99.90;;;;;;5114599;28;20409;-74
2022/10/07 02:27:18;;;;;;;9.02;2.40;;;9.60;99.90;;;;;;5108736;28;20499;-74
2022/10/07 02:29:45;;;;;;;9.77;2.30;;;9.60;99.90;;;;;;5127978;27;20896;-73
2022/10/07 02:32:17;;;;;;;8.77;2.40;;;9.60;99.90;;;;;;5128948;27;20590;-74
2022/10/07 02:34:46;;;;;;;8.07;2.30;;;9.60;99.90;;;;;;5111775;27;20937;-74
2022/10/07 02:37:25;;;;;;;7.30;2.22;;;9.60;99.90;;;;;;5112353;27;20411;-74
2022/10/07 02:39:52;;;;;;;9.13;2.53;;;9.50;99.90;;;;;;5111999;28;21100;-74
2022/10/07 02:42:24;;;;;;;8.25;2.45;;;9.60;99.90;;;;;;5110787;27;20404;-74
2022/10/07 02:44:59;;;;;;;8.07;2.17;;;9.60;99.90;;;;;;5111340;28;20768;-74
2022/10/07 02:47:35;;;;;;;10.18;2.72;;;9.60;99.90;;;;;;5110157;27;20427;-74
2022/10/07 02:50:05;;;;;;;10.27;2.55;;;9.50;99.90;;;;;;5129939;27;20866;-74
2022/10/07 02:52:32;;;;;;;10.27;2.60;;;9.50;99.90;;;;;;5121199;27;20403;-75
2022/10/07 02:55:00;;;;;;;10.00;2.53;;;9.60;99.90;;;;;;5117048;27;20439;-75
2022/10/07 02:57:29;;;;;;;10.40;2.65;;;9.50;99.90;;;;;;5122303;27;20520;-74
2022/10/07 02:59:57;;;;;;;9.85;2.88;;;9.50;99.90;;;;;;5114855;27;20487;-74
2022/10/07 03:02:49;;;;;;;8.25;2.45;;;9.50;99.90;;;;;;5098897;27;20918;-74
2022/10/07 03:05:19;;;;;;;10.00;3.10;;;9.50;99.90;;;;;;5106654;28;20419;-74
2022/10/07 03:07:51;;;;;;;10.07;2.90;;;9.50;99.90;;;;;;5111814;27;20424;-74
2022/10/07 03:10:17;;;;;;;8.80;2.90;;;9.50;99.90;;;;;;5112005;28;20404;-74
2022/10/07 03:12:43;;;;;;;8.43;2.42;;;9.50;99.90;;;;;;5123075;27;20482;-74
2022/10/07 03:15:12;;;;;;;14.55;3.20;;;9.50;99.90;;;;;;5112177;27;20428;-74
2022/10/07 03:17:39;;;;;;;9.67;2.70;;;9.50;99.90;;;;;;5111483;28;20408;-74
2022/10/07 03:20:06;;;;;;;12.93;2.58;;;9.50;99.90;;;;;;5122611;27;20398;-75
2022/10/07 03:22:32;;;;;;;9.68;2.85;;;9.50;99.90;;;;;;5112029;27;20507;-74
2022/10/07 03:24:58;;;;;;;11.55;2.63;;;9.50;99.90;;;;;;5123138;27;20485;-74
2022/10/07 03:27:24;;;;;;;8.03;2.70;;;9.50;99.90;;;;;;5128981;27;20475;-74
2022/10/07 03:29:49;;;;;;;11.35;3.08;;;9.50;99.90;;;;;;5130032;27;20463;-74
2022/10/07 03:32:15;;;;;;;20.00;3.55;;;9.50;99.90;;;;;;5108897;28;20405;-74
2022/10/07 03:34:40;;;;;;;10.37;2.57;;;9.50;99.90;;;;;;5113044;28;20463;-74
2022/10/07 03:37:06;;;;;;;12.40;2.80;;;9.50;99.90;;;;;;5120962;28;20407;-75
2022/10/07 03:39:32;;;;;;;11.65;2.90;;;9.50;99.90;;;;;;5120887;28;20396;-74
2022/10/07 03:41:58;;;;;;;11.03;3.17;;;9.50;99.90;;;;;;5121150;28;20400;-74
2022/10/07 03:44:24;;;;;;;10.00;2.53;;;9.50;99.90;;;;;;5120571;28;20408;-74
2022/10/07 03:46:50;;;;;;;12.30;2.70;;;9.50;99.90;;;;;;5119967;28;21259;-74
2022/10/07 03:49:16;;;;;;;10.52;2.60;;;9.50;99.90;;;;;;5113483;28;20415;-75
2022/10/07 03:51:42;;;;;;;10.40;2.90;;;9.50;99.90;;;;;;5109809;28;20411;-73
2022/10/07 03:54:08;;;;;;;13.90;2.95;;;9.50;99.90;;;;;;5109388;28;20432;-74
2022/10/07 03:56:34;;;;;;;10.32;3.10;;;9.40;99.90;;;;;;5127799;27;20765;-74
2022/10/07 03:59:00;;;;;;;11.83;3.53;;;9.40;99.90;;;;;;5129129;27;20394;-73
2022/10/07 04:01:30;;;;;;;10.40;3.40;;;9.40;99.90;;;;;;5129055;27;20399;-74
2022/10/07 04:03:56;;;;;;;9.05;2.42;;;9.40;99.90;;;;;;5128863;27;20406;-73
2022/10/07 04:06:21;;;;;;;11.55;2.80;;;9.40;99.90;;;;;;5109417;27;20411;-74
2022/10/07 04:08:51;;;;;;;8.53;2.47;;;9.40;99.90;;;;;;5109225;28;20467;-74
2022/10/07 04:11:17;;;;;;;16.17;3.28;;;9.40;99.90;;;;;;5111147;28;20930;-74
2022/10/07 04:13:44;;;;;;;10.95;2.85;;;9.30;99.90;;;;;;5120619;28;20424;-74
2022/10/07 04:16:10;;;;;;;10.98;2.97;;;9.30;99.90;;;;;;5126435;27;20396;-74
2022/10/07 04:18:36;;;;;;;12.68;2.95;;;9.30;99.90;;;;;;5126301;27;20402;-74
2022/10/07 04:21:01;;;;;;;12.35;3.22;;;9.30;99.90;;;;;;5121461;27;21291;-74
2022/10/07 04:23:27;;;;;;;15.57;3.28;;;9.30;99.90;;;;;;5067135;27;1767065;-74
2022/10/07 04:25:53;;;;;;;11.17;2.80;;;9.30;99.90;;;;;;5126264;27;20614;-74
2022/10/07 04:28:25;;;;;;;12.40;2.90;;;9.30;99.90;;;;;;5112920;27;20754;-74
2022/10/07 04:30:52;;;;;;;10.65;2.92;;;9.30;99.90;;;;;;5123422;27;20428;-74
2022/10/07 04:33:20;;;;;;;13.48;2.95;;;9.30;99.90;;;;;;5118438;27;20406;-74
2022/10/07 04:35:47;;;;;;;11.48;3.40;;;9.30;99.90;;;;;;5129833;27;20769;-74
2022/10/07 04:38:14;;;;;;;16.38;3.25;;;9.30;99.90;;;;;;5130123;27;20414;-74
2022/10/07 04:40:46;;;;;;;15.48;3.50;;;9.30;99.90;;;;;;5115642;27;20393;-74
2022/10/07 04:43:25;;;;;;;16.08;3.45;;;9.30;99.90;;;;;;5109672;28;20404;-74
2022/10/07 04:46:01;;;;;;;14.87;3.23;;;9.30;99.90;;;;;;5109479;27;20420;-74
2022/10/07 04:48:26;;;;;;;11.88;2.90;;;9.30;99.90;;;;;;5119785;27;20772;-74
2022/10/07 04:50:52;;;;;;;12.13;3.40;;;9.20;99.90;;;;;;5127863;27;20490;-74
2022/10/07 04:53:18;;;;;;;13.45;3.42;;;9.30;99.90;;;;;;5117846;27;20399;-74
2022/10/07 04:55:48;;;;;;;15.18;3.47;;;9.20;99.90;;;;;;5118859;27;20448;-74
2022/10/07 04:58:15;;;;;;;17.60;3.92;;;9.20;99.90;;;;;;5111640;27;20531;-74
2022/10/07 05:00:49;;;;;;;12.00;4.03;;;9.20;99.90;;;;;;5109524;28;20407;-74
2022/10/07 05:03:16;;;;;;;12.70;3.63;;;9.20;99.90;;;;;;5122497;27;20412;-74
2022/10/07 05:05:44;;;;;;;10.73;3.25;;;9.20;99.90;;;;;;5109290;28;20400;-74
2022/10/07 05:08:11;;;;;;;14.23;3.53;;;9.20;99.90;;;;;;5109656;27;20397;-74
2022/10/07 05:10:38;;;;;;;15.30;3.33;;;9.20;99.90;;;;;;5109462;27;20579;-74
2022/10/07 05:13:11;;;;;;;17.70;4.30;;;9.20;99.90;;;;;;5108041;27;20411;-74
2022/10/07 05:15:46;;;;;;;14.52;3.60;;;9.20;99.90;;;;;;5123057;27;20412;-74
2022/10/07 05:18:12;;;;;;;13.63;3.63;;;9.20;99.90;;;;;;5110292;27;20397;-74
2022/10/07 05:20:39;;;;;;;15.77;3.60;;;9.20;99.90;;;;;;5109009;27;21109;-74
2022/10/07 05:23:05;;;;;;;15.27;4.10;;;9.20;99.90;;;;;;5109540;27;20404;-73
2022/10/07 05:25:30;;;;;;;13.67;3.83;;;9.20;99.90;;;;;;5110732;27;20455;-74
2022/10/07 05:27:56;;;;;;;14.77;3.92;;;9.20;99.90;;;;;;5109640;27;20410;-73
2022/10/07 05:30:21;;;;;;;12.60;3.80;;;9.10;99.90;;;;;;5123688;27;20394;-74
2022/10/07 05:32:48;;;;;;;17.08;3.80;;;9.20;99.90;;;;;;5128819;27;20802;-74
2022/10/07 05:35:14;;;;;;;14.23;4.75;;;9.20;99.90;;;;;;5114162;27;20495;-74
2022/10/07 05:37:40;;;;;;;13.82;3.92;;;9.10;99.90;;;;;;5108901;28;20424;-74
2022/10/07 05:40:06;;;;;;;11.77;3.60;;;9.10;99.90;;;;;;5109460;27;20403;-74
2022/10/07 05:42:31;;;;;;;10.93;3.77;;;9.10;99.90;;;;;;5108245;27;20453;-74
2022/10/07 05:44:57;;;;;;;12.93;3.83;;;9.10;99.90;;;;;;5109305;27;20396;-74
2022/10/07 05:47:23;;;;;;;12.57;3.70;;;9.10;99.90;;;;;;5108874;27;20771;-74
2022/10/07 05:49:48;;;;;;;14.07;4.00;;;9.10;99.90;;;;;;5108410;28;20924;-74
2022/10/07 05:52:14;;;;;;;12.75;4.30;;;9.10;99.90;;;;;;5108173;28;20758;-74
2022/10/07 05:54:39;;;;;;;14.33;3.80;;;9.10;99.90;;;;;;5107447;27;20430;-74
2022/10/07 05:57:05;;;;;;;13.15;4.00;;;9.10;99.90;;;;;;5108709;28;20414;-74
2022/10/07 05:59:31;;;;;;;16.50;4.53;;;9.10;99.90;;;;;;5109838;27;21288;-74
2022/10/07 06:01:59;;;;;;;15.60;3.80;;;9.10;99.90;;;;;;5107386;28;20389;-74
2022/10/07 06:04:26;;;;;;;16.43;4.10;;;9.10;99.90;;;;;;5106313;27;20511;-74
2022/10/07 06:06:52;;;;;;;16.35;3.83;;;9.10;99.90;;;;;;5103872;28;20424;-74
2022/10/07 06:14:47;;;;;;;14.98;4.13;;;9.10;99.90;;;;;;5095962;28;20504;-74
2022/10/07 06:17:13;;;;;;;15.05;4.68;;;9.10;99.90;;;;;;5107406;28;20500;-74
2022/10/07 06:19:39;;;;;;;16.13;4.33;;;9.10;99.90;;;;;;5106540;28;20495;-74
2022/10/07 06:22:04;;;;;;;14.35;4.22;;;9.20;99.90;;;;;;5108529;28;20412;-74
2022/10/07 06:24:32;;;;;;;16.60;4.27;;;9.20;99.90;;;;;;5110530;27;20851;-74
2022/10/07 06:26:58;;;;;;;16.20;4.43;;;9.20;99.90;;;;;;5107833;28;20400;-75
2022/10/07 06:29:23;;;;;;;15.67;4.37;;;9.30;99.90;;;;;;5107736;28;20465;-74
2022/10/07 06:31:49;;;;;;;17.97;4.20;;;9.30;99.90;;;;;;5108079;28;20835;-74
2022/10/07 06:34:15;;;;;;;17.37;4.70;;;9.30;99.90;;;;;;5108185;28;20427;-75
2022/10/07 06:36:41;;;;;;;21.90;6.53;;;9.40;99.90;;;;;;5106763;28;20420;-74
2022/10/07 06:39:07;;;;;;;20.27;5.70;;;9.40;99.90;;;;;;5105625;28;20748;-74
2022/10/07 06:41:33;;;;;;;19.30;6.15;;;9.50;99.90;;;;;;5108483;28;20457;-75
2022/10/07 06:43:59;;;;;;;23.70;6.20;;;9.50;99.90;;;;;;5108220;28;20411;-73
2022/10/07 06:46:25;;;;;;;15.55;4.47;;;9.60;99.90;;;;;;5105574;28;20416;-74
2022/10/07 06:48:51;;;;;;;15.20;4.82;;;9.60;99.90;;;;;;5108188;28;20408;-72
2022/10/07 06:51:19;;;;;;;14.30;3.97;;;9.70;99.90;;;;;;5107907;28;20406;-72
2022/10/07 06:53:45;;;;;;;17.50;4.93;;;9.70;99.90;;;;;;5091395;28;20468;-73
2022/10/07 06:56:13;;;;;;;15.73;4.40;;;9.70;99.90;;;;;;5106266;28;20473;-73
2022/10/07 06:58:38;;;;;;;16.38;4.40;;;9.80;99.90;;;;;;5106295;28;20410;-73
2022/10/07 07:01:04;;;;;;;19.23;4.63;;;9.90;99.90;;;;;;5107849;28;20762;-73
2022/10/07 07:03:30;;;;;;;17.87;4.77;;;9.90;99.90;;;;;;5108236;28;20928;-73
2022/10/07 07:05:57;;;;;;;15.18;4.18;;;10.00;99.90;;;;;;5101603;28;20834;-72
2022/10/07 07:08:27;;;;;;;16.90;4.43;;;10.00;99.90;;;;;;5107763;28;20396;-72
2022/10/07 07:10:54;;;;;;;15.23;4.22;;;10.10;99.90;;;;;;5105564;28;20424;-73
2022/10/07 07:13:20;;;;;;;17.17;4.82;;;10.10;99.90;;;;;;5107964;28;20457;-73
2022/10/07 07:15:58;;;;;;;18.57;4.53;;;10.20;99.90;;;;;;5105773;28;20804;-73
2022/10/07 07:18:24;;;;;;;15.80;4.63;;;10.20;99.90;;;;;;5111138;28;20431;-73
2022/10/07 07:20:50;;;;;;;13.63;4.30;;;10.20;99.90;;;;;;5111165;28;20450;-73
2022/10/07 07:23:16;;;;;;;12.20;4.22;;;10.20;99.90;;;;;;5109794;28;20933;-73
2022/10/07 07:25:45;;;;;;;13.93;4.50;;;10.30;99.90;;;;;;5109624;28;20412;-73
2022/10/07 07:28:13;;;;;;;13.20;3.90;;;10.30;99.90;;;;;;5110935;28;20400;-73
2022/10/07 07:30:39;;;;;;;15.40;4.57;;;10.40;99.90;;;;;;5109395;28;20423;-73
2022/10/07 07:33:05;;;;;;;13.68;4.80;;;10.40;99.90;;;;;;5110833;28;20396;-73
2022/10/07 07:35:35;;;;;;;14.95;4.22;;;10.50;99.90;;;;;;5111218;28;20455;-73
2022/10/07 07:38:00;;;;;;;18.40;4.57;;;10.50;99.90;;;;;;5100979;28;21174;-73
2022/10/07 07:40:26;;;;;;;19.23;5.00;;;10.60;99.90;;;;;;5111519;27;20460;-74
2022/10/07 07:42:54;;;;;;;16.38;4.72;;;10.60;99.90;;;;;;5109993;28;20520;-74
2022/10/07 07:45:20;;;;;;;13.27;4.07;;;10.70;99.90;;;;;;5112741;27;20434;-72
2022/10/07 07:47:48;;;;;;;15.77;4.57;;;10.80;99.90;;;;;;5111175;27;20408;-72
2022/10/07 07:50:15;;;;;;;13.83;4.17;;;10.80;99.90;;;;;;5112237;27;20400;-72
2022/10/07 07:52:41;;;;;;;15.52;4.72;;;10.90;99.90;;;;;;5113563;27;20391;-72
2022/10/07 07:55:07;;;;;;;14.10;4.45;;;10.90;99.90;;;;;;5113207;27;20431;-72
2022/10/07 07:57:32;;;;;;;18.20;4.70;;;11.00;99.90;;;;;;5109325;28;20774;-72
2022/10/07 07:59:58;;;;;;;17.83;5.10;;;11.10;99.90;;;;;;5109524;28;20495;-73
2022/10/07 08:02:23;;;;;;;15.73;4.15;;;11.20;99.90;;;;;;5109457;28;20404;-73
2022/10/07 08:04:49;;;;;;;14.10;4.10;;;11.20;99.90;;;;;;5109853;28;20409;-72
2022/10/07 08:07:15;;;;;;;14.27;4.13;;;11.30;99.90;;;;;;5109032;28;20413;-72
2022/10/07 08:09:41;;;;;;;15.87;4.17;;;11.40;99.90;;;;;;5110491;28;20871;-71
2022/10/07 08:12:07;;;;;;;13.57;4.27;;;11.40;99.90;;;;;;5109037;28;20922;-72
2022/10/07 08:14:33;;;;;;;14.57;3.88;;;11.50;99.90;;;;;;5110458;28;20600;-72
2022/10/07 08:16:58;;;;;;;14.18;3.60;;;11.60;99.90;;;;;;5108787;28;20420;-72
2022/10/07 08:19:28;;;;;;;13.45;3.90;;;11.60;99.90;;;;;;5109868;28;20798;-71
2022/10/07 08:21:54;;;;;;;15.93;3.97;;;11.70;99.90;;;;;;5109510;28;20416;-72
2022/10/07 08:24:21;;;;;;;15.07;3.95;;;11.80;99.90;;;;;;5109566;28;20443;-72
2022/10/07 08:26:47;;;;;;;15.30;3.65;;;11.90;99.90;;;;;;5110268;28;20985;-72
2022/10/07 08:29:14;;;;;;;15.63;4.30;;;12.00;99.90;;;;;;5109374;28;20490;-72
2022/10/07 08:31:41;;;;;;;15.52;3.97;;;12.10;99.90;;;;;;5106940;28;20432;-72
2022/10/07 08:34:06;;;;;;;14.48;3.65;;;12.10;99.90;;;;;;5110049;28;20934;-72
2022/10/07 08:36:32;;;;;;;13.60;3.55;;;12.20;99.90;;;;;;5110273;28;20438;-72
2022/10/07 08:39:00;;;;;;;14.77;3.40;;;12.30;99.90;;;;;;5108513;28;20488;-72
2022/10/07 08:41:47;;;;;;;15.55;3.90;;;12.40;99.90;;;;;;5109320;28;20556;-72
2022/10/07 08:44:12;;;;;;;17.47;3.77;;;12.60;99.90;;;;;;5098701;28;20466;-72
2022/10/07 08:46:47;;;;;;;12.90;2.95;;;12.60;99.90;;;;;;5107996;28;20444;-72
2022/10/07 08:49:17;;;;;;;14.00;3.00;;;12.70;99.90;;;;;;5107272;28;20928;-72
2022/10/07 08:52:02;;;;;;;14.03;2.87;;;12.80;99.90;;;;;;5109177;28;20428;-72
2022/10/07 08:54:32;;;;;;;16.60;3.30;;;12.90;99.90;;;;;;5108492;28;20463;-72
2022/10/07 08:57:07;;;;;;;12.13;2.83;;;13.10;99.90;;;;;;5109215;28;20424;-72
2022/10/07 08:59:34;;;;;;;15.00;3.10;;;13.20;99.90;;;;;;5120815;27;20402;-72
2022/10/07 09:02:29;;;;;;;14.32;3.05;;;13.60;99.90;;;;;;5109132;28;20404;-72
2022/10/07 09:04:58;;;;;;;12.75;2.95;;;14.50;99.90;;;;;;5109689;28;20419;-72
2022/10/07 09:07:30;;;;;;;11.73;2.33;;;15.60;99.90;;;;;;5108982;28;20419;-72
2022/10/07 09:10:07;;;;;;;11.27;2.60;;;16.60;99.90;;;;;;5096469;28;20404;-73
2022/10/07 09:12:55;;;;;;;13.43;3.00;;;17.40;99.90;;;;;;5104140;27;20426;-73
2022/10/07 09:15:42;;;;;;;11.98;2.33;;;18.10;99.90;;;;;;5101665;28;20428;-72
2022/10/07 09:18:19;;;;;;;14.23;2.50;;;18.80;99.90;;;;;;5109525;28;20431;-73
2022/10/07 09:20:52;;;;;;;12.95;2.53;;;19.40;99.90;;;;;;5107101;28;20435;-72
2022/10/07 09:23:24;;;;;;;10.50;2.23;;;19.80;99.90;;;;;;5108601;28;20426;-72
2022/10/07 09:25:50;;;;;;;10.52;1.98;;;20.10;99.90;;;;;;5107696;28;20440;-72
2022/10/07 09:28:18;;;;;;;11.77;2.13;;;20.30;99.90;;;;;;5109197;28;20396;-72
2022/10/07 09:30:44;;;;;;;12.02;2.63;;;20.50;99.90;;;;;;5108841;28;20423;-72
2022/10/07 09:33:19;;;;;;;9.73;1.80;;;20.60;99.90;;;;;;5103258;28;20414;-72
2022/10/07 09:35:52;;;;;;;9.40;2.00;;;20.80;99.90;;;;;;5108065;28;20400;-72
2022/10/07 09:38:32;;;;;;;14.82;2.70;;;21.20;99.90;;;;;;5109051;28;20400;-73
2022/10/07 09:41:19;;;;;;;7.70;1.52;;;21.50;99.20;;;;;;5108369;28;20404;-73
2022/10/07 09:44:21;;;;;;;12.15;2.60;;;21.80;99.50;;;;;;5108574;28;20404;-72
2022/10/07 09:46:53;;;;;;;12.13;2.40;;;22.10;98.90;;;;;;5107328;28;20432;-73
2022/10/07 09:49:28;;;;;;;8.68;2.00;;;22.30;97.70;;;;;;5108804;28;20412;-73
2022/10/07 09:52:11;;;;;;;10.90;2.05;;;22.40;97.60;;;;;;5108576;28;20461;-73
2022/10/07 09:54:37;;;;;;;11.68;2.17;;;22.60;96.50;;;;;;5108580;28;21544;-73
2022/10/07 09:57:04;;;;;;;10.20;2.10;;;22.80;97.40;;;;;;5108183;28;20463;-72
2022/10/07 09:59:35;;;;;;;11.70;2.10;;;23.20;96.30;;;;;;5107625;28;20408;-73
2022/10/07 10:02:14;;;;;;;11.18;2.20;;;23.40;95.30;;;;;;5108507;28;20408;-70
2022/10/07 10:04:55;;;;;;;11.18;2.00;;;23.60;94.90;;;;;;5108707;27;20914;-73
2022/10/07 10:07:25;;;;;;;9.00;2.40;;;23.60;94.10;;;;;;5105822;28;20917;-73
2022/10/07 10:09:54;;;;;;;9.23;1.73;;;23.60;94.20;;;;;;5107977;28;20926;-73
2022/10/07 10:12:22;;;;;;;10.90;2.10;;;23.90;93.90;;;;;;5105958;28;20957;-73
2022/10/07 10:14:49;;;;;;;10.53;2.43;;;24.20;94.10;;;;;;5105945;28;20535;-71
2022/10/07 10:17:33;;;;;;;9.30;1.75;;;24.40;92.30;;;;;;5116778;28;20496;-73
2022/10/07 10:20:45;;;;;;;10.63;2.47;;;24.30;92.30;;;;;;5117038;28;20442;-72
2022/10/07 10:23:35;;;;;;;9.07;2.10;;;24.20;92.20;;;;;;5096453;28;20549;-72
2022/10/07 10:26:43;;;;;;;12.00;1.83;;;23.90;90.80;;;;;;5113909;28;20425;-72
2022/10/07 10:29:43;;;;;;;8.25;1.83;;;23.70;91.70;;;;;;5108358;28;20452;-72
2022/10/07 10:32:40;;;;;;;8.00;1.80;;;23.60;92.30;;;;;;5090056;28;20416;-73
2022/10/07 10:35:20;;;;;;;9.82;2.33;;;23.90;92.30;;;;;;5107706;28;20427;-72
2022/10/07 10:38:16;;;;;;;9.82;1.70;;;24.30;90.70;;;;;;5104476;28;20420;-72
2022/10/07 10:41:00;;;;;;;8.17;1.50;;;24.40;90.30;;;;;;5107351;28;20906;-72
2022/10/07 10:43:49;;;;;;;8.85;1.75;;;24.60;91.20;;;;;;5107694;28;20401;-72
2022/10/07 10:46:24;;;;;;;8.20;1.60;;;25.00;91.10;;;;;;5107975;28;20495;-72
2022/10/07 10:48:53;;;;;;;8.57;1.83;;;25.20;90.20;;;;;;5107677;28;20542;-73
2022/10/07 10:51:33;;;;;;;9.52;1.98;;;25.50;90.50;;;;;;5112062;28;20404;-70
2022/10/07 10:54:05;;;;;;;6.78;1.67;;;25.80;89.00;;;;;;5121250;27;20428;-71
2022/10/07 10:56:43;;;;;;;11.98;2.22;;;26.10;87.50;;;;;;5113799;27;20513;-71
2022/10/07 10:59:20;;;;;;;10.43;1.88;;;26.10;86.00;;;;;;5119337;27;20416;-71
2022/10/07 11:01:56;;;;;;;10.65;1.65;;;26.30;86.60;;;;;;5113919;27;20446;-70
2022/10/07 11:04:44;;;;;;;10.10;3.23;;;26.00;84.30;;;;;;5118619;27;20971;-70
2022/10/07 11:07:30;;;;;;;9.50;1.92;;;25.80;85.80;;;;;;5124974;27;20455;-70
2022/10/07 11:10:05;;;;;;;10.77;1.88;;;26.00;83.30;;;;;;5115879;27;20407;-70
2022/10/07 11:12:38;;;;;;;9.80;2.30;;;26.00;82.30;;;;;;5118675;27;20458;-70
2022/10/07 11:15:32;;;;;;;8.35;1.70;;;25.90;83.20;;;;;;5118712;27;20439;-70
2022/10/07 11:18:04;;;;;;;9.90;1.70;;;25.90;82.90;;;;;;5112922;27;20508;-70
2022/10/07 11:20:37;;;;;;;8.48;1.67;;;25.80;81.30;;;;;;5125933;27;20453;-70
2022/10/07 11:23:26;;;;;;;8.15;1.63;;;25.50;82.00;;;;;;5116037;27;20408;-71
2022/10/07 11:26:09;;;;;;;9.40;1.53;;;25.00;83.40;;;;;;5118487;27;20420;-71
2022/10/07 11:28:37;;;;;;;7.97;1.63;;;24.60;83.80;;;;;;5120142;27;20403;-71
2022/10/07 11:31:23;;;;;;;8.25;1.50;;;23.80;83.80;;;;;;5105104;27;20406;-71
2022/10/07 11:34:14;;;;;;;7.65;1.40;;;23.50;84.80;;;;;;5109669;27;20424;-71
2022/10/07 11:36:45;;;;;;;10.37;2.00;;;23.20;86.00;;;;;;5112060;27;20498;-73
2022/10/07 11:39:11;;;;;;;9.75;1.80;;;23.10;86.10;;;;;;5113827;27;20409;-73
2022/10/07 11:42:18;;;;;;;9.35;1.65;;;22.90;86.90;;;;;;5109546;28;20480;-73
2022/10/07 11:45:07;;;;;;;9.10;1.40;;;22.60;86.80;;;;;;5086511;28;20917;-71
2022/10/07 11:47:39;;;;;;;9.27;2.05;;;22.20;87.90;;;;;;5070263;28;20414;-72
2022/10/07 11:50:30;;;;;;;7.90;1.35;;;22.40;89.80;;;;;;5100387;28;20424;-73
2022/10/07 11:53:03;;;;;;;6.18;1.70;;;22.90;88.00;;;;;;5109354;28;20413;-72
2022/10/07 11:55:44;;;;;;;7.88;1.70;;;22.90;89.00;;;;;;5107836;27;20527;-73
2022/10/07 11:58:43;;;;;;;8.68;1.15;;;23.40;89.20;;;;;;5118987;27;20407;-70
2022/10/07 12:01:29;;;;;;;9.75;1.70;;;23.80;86.10;;;;;;5116401;27;20411;-71
2022/10/07 12:04:17;;;;;;;7.32;1.30;;;23.90;85.60;;;;;;5104030;28;20509;-72
2022/10/07 12:07:21;;;;;;;8.23;1.45;;;23.90;86.00;;;;;;5114795;27;20449;-73
2022/10/07 12:09:54;;;;;;;8.50;1.63;;;23.10;85.60;;;;;;5111549;27;20400;-73
2022/10/07 12:12:23;;;;;;;8.60;1.88;;;22.60;87.50;;;;;;5107065;28;20428;-72
2022/10/07 12:15:00;;;;;;;8.00;1.40;;;22.20;87.30;;;;;;5120736;27;20424;-73
2022/10/07 12:17:28;;;;;;;6.80;1.20;;;21.60;88.30;;;;;;5110906;28;20487;-73
2022/10/07 12:20:32;;;;;;;7.68;1.20;;;21.10;89.30;;;;;;5110287;28;20404;-73
2022/10/07 12:23:16;;;;;;;8.38;1.35;;;20.70;90.20;;;;;;5107746;28;20458;-73
2022/10/07 12:25:45;;;;;;;9.07;1.60;;;20.70;91.30;;;;;;5110250;27;20465;-72
2022/10/07 12:28:35;;;;;;;7.15;1.45;;;21.00;91.10;;;;;;5110339;28;20412;-73
2022/10/07 12:31:04;;;;;;;6.97;1.97;;;20.80;91.00;;;;;;5110087;28;20409;-72
2022/10/07 12:33:35;;;;;;;7.00;1.10;;;20.70;91.50;;;;;;5098878;28;20512;-72
2022/10/07 12:36:20;;;;;;;5.32;1.00;;;20.40;90.80;;;;;;5110472;28;20400;-72
2022/10/07 12:38:54;;;;;;;7.80;1.60;;;20.20;91.10;;;;;;5109452;28;20420;-73
2022/10/07 12:41:24;;;;;;;7.82;1.40;;;20.10;91.50;;;;;;5110286;28;20499;-72
2022/10/07 12:44:05;;;;;;;7.80;1.23;;;20.20;91.60;;;;;;5107768;28;20520;-72
2022/10/07 12:46:40;;;;;;;8.40;1.58;;;20.10;91.40;;;;;;5097777;27;21027;-72
2022/10/07 12:49:29;;;;;;;8.35;1.40;;;20.20;92.00;;;;;;5120518;27;20930;-72
2022/10/07 12:51:58;;;;;;;8.67;1.37;;;20.60;91.60;;;;;;5109710;28;20404;-73
2022/10/07 12:54:55;;;;;;;9.75;1.42;;;20.60;91.90;;;;;;5109267;28;21235;-72
2022/10/07 12:57:24;;;;;;;6.03;1.05;;;20.40;91.80;;;;;;5096163;28;20420;-73
2022/10/07 12:59:49;;;;;;;5.43;0.98;;;20.60;92.40;;;;;;5108770;28;20945;-73
2022/10/07 13:02:21;;;;;;;9.20;1.77;;;20.80;91.60;;;;;;5109930;28;20440;-72
2022/10/07 13:04:50;;;;;;;6.50;1.13;;;20.70;92.10;;;;;;5109570;28;20408;-72
2022/10/07 13:07:47;;;;;;;7.63;1.30;;;20.60;91.80;;;;;;5105209;28;20435;-73
2022/10/07 13:10:49;;;;;;;9.48;1.67;;;20.90;92.40;;;;;;5099214;28;20415;-73
2022/10/07 13:13:34;;;;;;;6.78;1.15;;;21.60;91.60;;;;;;5097574;28;20400;-72
2022/10/07 13:16:11;;;;;;;7.25;0.93;;;21.70;90.60;;;;;;5108995;27;20435;-72
2022/10/07 13:19:01;;;;;;;8.18;1.50;;;21.80;91.00;;;;;;5101926;28;20898;-72